Time;durP1;ratioP1;P1;durP2;ratioP2;P2;SDS_P1;SDS_P2;PMS_P1;PMS_P2;Temp;Humidity;BMP_temperature;BMP_pressure;BME280_temperature;BME280_humidity;BME280_pressure;Samples;Min_cycle;Max_cycle;Signal;HPM_P1;HPM_P2
2021/09/22 00:18:00;;;;;;;10.93;7.60;;;14.30;91.40;;;;;;6094674;23;20021;-86
2021/09/22 00:20:25;;;;;;;11.10;7.85;;;14.30;91.70;;;;;;6170632;23;20020;-86
2021/09/22 00:22:55;;;;;;;9.27;7.50;;;14.30;91.90;;;;;;6190189;23;20027;-86
2021/09/22 00:25:21;;;;;;;9.57;7.50;;;14.30;91.90;;;;;;6214951;23;20091;-87
2021/09/22 00:28:35;;;;;;;;;;;;;;;;;;;;;
2021/09/22 00:31:56;;;;;;;10.00;7.70;;;14.20;91.80;;;;;;6064245;23;20034;-85
2021/09/22 00:34:21;;;;;;;10.40;7.70;;;14.10;91.60;;;;;;6093651;23;20021;-86
2021/09/22 00:36:48;;;;;;;10.75;7.53;;;14.10;91.90;;;;;;6187838;23;20103;-85
2021/09/22 00:39:15;;;;;;;12.07;8.05;;;14.10;92.20;;;;;;6215127;23;20025;-85
2021/09/22 00:41:41;;;;;;;10.88;7.45;;;14.10;92.00;;;;;;6213205;23;20275;-86
2021/09/22 00:44:07;;;;;;;10.95;7.88;;;14.10;92.00;;;;;;6188991;23;20017;-86
2021/09/22 00:46:35;;;;;;;9.45;7.88;;;14.00;92.00;;;;;;6188753;23;20016;-85
2021/09/22 00:49:00;;;;;;;10.30;8.18;;;14.00;91.90;;;;;;6187794;23;20066;-85
2021/09/22 00:51:26;;;;;;;10.32;8.10;;;14.00;92.00;;;;;;6188900;23;20024;-85
2021/09/22 00:53:59;;;;;;;9.60;7.57;;;14.00;92.00;;;;;;6189383;23;20013;-86
2021/09/22 00:56:25;;;;;;;10.02;7.95;;;14.00;92.00;;;;;;6188244;23;20087;-85
2021/09/22 00:58:52;;;;;;;9.40;7.55;;;13.90;92.10;;;;;;6188931;23;20071;-85
2021/09/22 01:01:19;;;;;;;9.30;8.07;;;13.90;91.80;;;;;;6214405;23;20016;-85
2021/09/22 01:03:44;;;;;;;10.60;8.05;;;13.90;91.90;;;;;;6214730;23;20031;-86
2021/09/22 01:06:15;;;;;;;10.15;8.43;;;13.90;91.80;;;;;;6190290;23;20008;-86
2021/09/22 01:08:41;;;;;;;11.95;8.55;;;13.80;91.60;;;;;;6187904;23;20020;-86
2021/09/22 01:11:06;;;;;;;10.73;8.18;;;13.80;91.80;;;;;;6189045;23;20023;-86
2021/09/22 01:13:32;;;;;;;11.43;8.38;;;13.80;91.60;;;;;;6188888;23;20022;-86
2021/09/22 01:15:58;;;;;;;10.88;8.02;;;13.80;91.60;;;;;;6188127;23;20013;-87
2021/09/22 01:18:24;;;;;;;9.15;7.40;;;13.70;91.60;;;;;;6189626;23;20091;-85
2021/09/22 01:20:56;;;;;;;10.95;8.77;;;13.70;91.60;;;;;;6189895;23;20032;-87
2021/09/22 01:23:22;;;;;;;9.30;8.02;;;13.70;91.80;;;;;;6213671;23;20025;-85
2021/09/22 01:25:50;;;;;;;11.25;8.38;;;13.70;91.80;;;;;;6216031;23;20016;-85
2021/09/22 01:28:18;;;;;;;10.18;8.48;;;13.70;91.90;;;;;;6192240;23;20099;-86
2021/09/22 01:30:45;;;;;;;10.20;8.27;;;13.60;92.10;;;;;;6215667;23;20345;-86
2021/09/22 01:33:12;;;;;;;10.45;8.50;;;13.60;92.20;;;;;;6191293;23;20027;-85
2021/09/22 01:35:41;;;;;;;10.82;8.63;;;13.60;92.20;;;;;;6190574;23;20017;-86
2021/09/22 01:38:27;;;;;;;10.65;8.43;;;13.60;92.20;;;;;;6189384;23;20017;-86
2021/09/22 01:41:02;;;;;;;10.40;8.38;;;13.60;91.90;;;;;;6190789;23;20012;-86
2021/09/22 01:43:30;;;;;;;11.05;8.35;;;13.50;92.20;;;;;;6190357;23;20024;-85
2021/09/22 01:45:57;;;;;;;10.57;8.07;;;13.50;92.30;;;;;;6216503;23;20055;-86
2021/09/22 01:48:23;;;;;;;10.30;8.18;;;13.50;92.10;;;;;;6191641;23;20088;-86
2021/09/22 01:50:49;;;;;;;11.27;8.30;;;13.50;92.10;;;;;;6190627;23;20017;-86
2021/09/22 01:53:15;;;;;;;10.93;8.15;;;13.50;92.00;;;;;;6191355;23;20017;-87
2021/09/22 01:55:41;;;;;;;10.93;8.25;;;13.50;91.80;;;;;;6190717;23;20040;-85
2021/09/22 01:58:07;;;;;;;10.82;8.23;;;13.50;91.80;;;;;;6191373;23;20090;-86
2021/09/22 02:00:33;;;;;;;10.80;8.70;;;13.40;91.90;;;;;;6190768;23;20012;-86
2021/09/22 02:02:59;;;;;;;9.52;7.90;;;13.40;91.90;;;;;;6216358;23;20013;-86
2021/09/22 02:05:24;;;;;;;11.13;8.98;;;13.40;91.90;;;;;;6190068;23;20017;-86
2021/09/22 02:07:50;;;;;;;11.52;9.07;;;13.40;92.20;;;;;;6191312;23;20058;-86
2021/09/22 02:10:15;;;;;;;9.77;8.10;;;13.30;92.30;;;;;;6191323;23;20347;-87
2021/09/22 02:12:41;;;;;;;10.00;8.52;;;13.40;92.20;;;;;;6189551;23;20016;-86
2021/09/22 02:15:07;;;;;;;10.05;8.30;;;13.30;92.30;;;;;;6191064;23;20095;-86
2021/09/22 02:17:33;;;;;;;10.18;7.70;;;13.30;92.30;;;;;;6215046;23;20437;-86
2021/09/22 02:19:59;;;;;;;10.77;8.60;;;13.30;92.30;;;;;;6189127;23;20020;-86
2021/09/22 02:22:24;;;;;;;10.95;8.48;;;13.30;92.30;;;;;;6189934;23;20020;-86
2021/09/22 02:24:50;;;;;;;9.98;8.00;;;13.30;92.40;;;;;;6190531;23;20437;-86
2021/09/22 02:27:18;;;;;;;9.13;7.93;;;13.30;92.40;;;;;;6190341;23;20016;-86
2021/09/22 02:29:44;;;;;;;9.45;7.78;;;13.30;92.50;;;;;;6214909;23;20020;-86
2021/09/22 02:32:11;;;;;;;8.55;7.50;;;13.30;92.50;;;;;;6190152;23;20020;-86
2021/09/22 02:34:37;;;;;;;8.77;7.55;;;13.30;92.50;;;;;;6188988;23;20099;-86
2021/09/22 02:37:04;;;;;;;9.48;7.60;;;13.30;92.50;;;;;;6189757;23;20103;-87
2021/09/22 02:39:30;;;;;;;8.48;7.22;;;13.30;92.40;;;;;;6214580;23;20015;-86
2021/09/22 02:41:56;;;;;;;7.95;6.53;;;13.20;92.40;;;;;;6189031;23;20067;-86
2021/09/22 02:44:21;;;;;;;8.68;6.80;;;13.20;92.40;;;;;;6190247;23;20489;-86
2021/09/22 02:46:47;;;;;;;8.75;7.00;;;13.20;92.40;;;;;;6189731;23;20016;-86
2021/09/22 02:49:13;;;;;;;8.27;6.88;;;13.20;92.50;;;;;;6190662;23;20020;-86
2021/09/22 02:51:39;;;;;;;8.25;6.72;;;13.20;92.50;;;;;;6190444;23;20017;-86
2021/09/22 02:54:04;;;;;;;8.95;6.40;;;13.20;92.50;;;;;;6189686;23;20461;-86
2021/09/22 02:56:30;;;;;;;8.35;6.68;;;13.20;92.50;;;;;;6190324;23;20044;-86
2021/09/22 02:58:55;;;;;;;8.55;6.30;;;13.20;92.50;;;;;;6191562;23;20028;-86
2021/09/22 03:01:21;;;;;;;7.90;6.80;;;13.10;92.40;;;;;;6190216;23;20012;-86
2021/09/22 03:03:46;;;;;;;7.35;6.35;;;13.20;92.40;;;;;;6190941;23;20346;-86
2021/09/22 03:06:12;;;;;;;7.95;6.88;;;13.20;92.40;;;;;;6190845;23;20016;-86
2021/09/22 03:08:40;;;;;;;7.93;6.65;;;13.10;92.40;;;;;;6189749;23;20012;-86
2021/09/22 03:11:08;;;;;;;7.45;6.38;;;13.10;92.20;;;;;;6190552;23;20388;-86
2021/09/22 03:13:36;;;;;;;7.45;6.40;;;13.10;92.30;;;;;;6189887;23;20021;-86
2021/09/22 03:16:03;;;;;;;7.97;6.88;;;13.10;92.30;;;;;;6189575;23;20017;-86
2021/09/22 03:18:29;;;;;;;7.90;6.75;;;13.10;92.30;;;;;;6190728;23;20015;-86
2021/09/22 03:20:56;;;;;;;7.28;6.47;;;13.10;92.30;;;;;;6190041;23;20445;-86
2021/09/22 03:23:22;;;;;;;7.68;6.40;;;13.10;92.40;;;;;;6214417;23;20020;-85
2021/09/22 03:25:47;;;;;;;8.13;6.93;;;13.10;92.40;;;;;;6188875;23;20009;-86
2021/09/22 03:28:13;;;;;;;8.43;6.55;;;13.10;92.40;;;;;;6190051;23;20155;-85
2021/09/22 03:30:39;;;;;;;7.97;6.97;;;13.10;92.40;;;;;;6188539;23;20012;-86
2021/09/22 03:33:05;;;;;;;8.05;6.70;;;13.10;92.40;;;;;;6214501;23;20016;-86
2021/09/22 03:35:31;;;;;;;7.85;6.53;;;13.10;92.20;;;;;;6189291;23;20008;-87
2021/09/22 03:38:00;;;;;;;8.25;7.03;;;13.10;92.20;;;;;;6188751;23;20063;-85
2021/09/22 03:40:26;;;;;;;8.05;6.43;;;13.10;92.20;;;;;;6215465;23;20096;-86
2021/09/22 03:42:51;;;;;;;8.65;7.10;;;13.10;92.10;;;;;;6190115;23;20040;-86
2021/09/22 03:45:17;;;;;;;8.70;7.07;;;13.10;92.20;;;;;;6190098;23;20020;-86
2021/09/22 03:47:43;;;;;;;8.13;6.82;;;13.10;92.30;;;;;;6190659;23;20012;-86
2021/09/22 03:50:10;;;;;;;7.40;6.32;;;13.10;92.30;;;;;;6209011;23;20017;-86
2021/09/22 03:52:36;;;;;;;8.00;7.00;;;13.10;92.30;;;;;;6185344;23;20060;-86
2021/09/22 03:55:03;;;;;;;8.00;7.10;;;13.10;92.30;;;;;;6161231;23;20017;-86
2021/09/22 03:57:28;;;;;;;7.97;7.18;;;13.10;92.30;;;;;;6184267;23;20013;-86
2021/09/22 03:59:54;;;;;;;8.95;7.65;;;13.10;92.40;;;;;;6185119;23;20031;-86
2021/09/22 04:02:20;;;;;;;7.93;7.13;;;13.00;92.40;;;;;;6184217;23;20036;-86
2021/09/22 04:04:46;;;;;;;10.77;7.30;;;13.10;92.40;;;;;;6183367;23;20025;-86
2021/09/22 04:07:12;;;;;;;8.80;7.45;;;13.00;92.40;;;;;;6184229;23;20009;-86
2021/09/22 04:09:37;;;;;;;9.15;7.60;;;13.10;92.50;;;;;;6184145;23;20024;-86
2021/09/22 04:12:03;;;;;;;8.07;7.28;;;13.10;92.50;;;;;;6183280;23;20080;-86
2021/09/22 04:14:29;;;;;;;8.50;7.60;;;13.10;92.40;;;;;;6183990;23;20446;-85
2021/09/22 04:16:55;;;;;;;8.50;7.53;;;13.00;92.40;;;;;;6184133;23;20021;-87
2021/09/22 04:19:20;;;;;;;9.85;8.00;;;13.00;92.40;;;;;;6183852;23;20020;-87
2021/09/22 04:21:46;;;;;;;8.00;7.20;;;13.00;92.40;;;;;;6184099;23;20020;-87
2021/09/22 04:24:11;;;;;;;7.68;6.88;;;13.00;92.30;;;;;;6210502;23;20327;-87
2021/09/22 04:26:38;;;;;;;7.70;6.90;;;13.00;92.30;;;;;;6183828;23;20024;-87
2021/09/22 04:29:04;;;;;;;8.20;7.25;;;13.00;92.40;;;;;;6210159;23;20354;-86
2021/09/22 04:31:29;;;;;;;7.35;6.57;;;13.00;92.40;;;;;;6185016;23;20021;-85
2021/09/22 04:33:57;;;;;;;7.57;6.78;;;13.00;92.40;;;;;;6183811;23;20445;-86
2021/09/22 04:36:22;;;;;;;7.45;6.65;;;13.00;92.50;;;;;;6210047;23;20017;-86
2021/09/22 04:38:48;;;;;;;8.13;7.03;;;13.00;92.50;;;;;;6185136;23;20059;-87
2021/09/22 04:41:14;;;;;;;8.45;6.50;;;12.90;92.50;;;;;;6184144;23;20044;-86
2021/09/22 04:43:39;;;;;;;7.28;6.45;;;12.90;92.40;;;;;;6184056;23;20020;-87
2021/09/22 04:46:05;;;;;;;7.85;6.93;;;12.90;92.40;;;;;;6184102;23;20123;-87
2021/09/22 04:48:31;;;;;;;7.78;6.78;;;12.90;92.40;;;;;;6183129;23;20017;-86
2021/09/22 04:50:57;;;;;;;7.80;7.00;;;12.90;92.50;;;;;;6208752;23;20072;-86
2021/09/22 04:53:22;;;;;;;7.80;7.00;;;12.90;92.50;;;;;;6183394;23;20025;-86
2021/09/22 04:55:48;;;;;;;7.90;6.63;;;12.90;92.40;;;;;;6184055;23;20013;-86
2021/09/22 04:58:14;;;;;;;7.28;6.50;;;12.90;92.40;;;;;;6184065;23;20025;-86
2021/09/22 05:00:40;;;;;;;6.60;5.90;;;12.90;92.50;;;;;;6182871;23;20453;-86
2021/09/22 05:03:09;;;;;;;7.93;6.78;;;12.90;92.40;;;;;;6185602;23;20016;-86
2021/09/22 05:05:34;;;;;;;7.22;6.10;;;12.90;92.30;;;;;;6210503;23;20126;-86
2021/09/22 05:08:00;;;;;;;7.68;6.60;;;12.80;92.20;;;;;;6184706;23;20453;-86
2021/09/22 05:10:34;;;;;;;7.25;6.38;;;12.80;92.30;;;;;;6210114;23;20020;-86
2021/09/22 05:13:00;;;;;;;7.85;5.93;;;12.80;92.40;;;;;;6185597;23;20075;-87
2021/09/22 05:15:29;;;;;;;8.23;6.68;;;12.80;92.40;;;;;;6184824;23;20032;-86
2021/09/22 05:17:54;;;;;;;7.18;6.15;;;12.80;92.60;;;;;;6186266;23;20021;-86
2021/09/22 05:20:21;;;;;;;7.53;6.20;;;12.80;92.50;;;;;;6185763;23;20089;-87
2021/09/22 05:22:47;;;;;;;8.52;5.50;;;12.80;92.50;;;;;;6209004;23;20068;-86
2021/09/22 05:25:13;;;;;;;7.25;6.05;;;12.80;92.20;;;;;;6210281;23;20401;-86
2021/09/22 05:27:38;;;;;;;7.10;6.30;;;12.80;92.20;;;;;;6173014;23;20049;-86
2021/09/22 05:30:05;;;;;;;7.72;6.35;;;12.80;92.30;;;;;;6181847;23;20017;-85
2021/09/22 05:32:30;;;;;;;6.85;6.13;;;12.80;92.50;;;;;;6208637;23;20052;-86
2021/09/22 05:34:56;;;;;;;7.28;6.07;;;12.70;92.50;;;;;;6185355;23;20017;-87
2021/09/22 05:37:22;;;;;;;7.63;6.25;;;12.70;92.60;;;;;;6184010;23;20315;-85
2021/09/22 05:39:47;;;;;;;7.65;6.50;;;12.70;92.50;;;;;;6185876;23;20144;-85
2021/09/22 05:42:14;;;;;;;7.80;6.65;;;12.80;92.60;;;;;;6186030;23;20331;-86
2021/09/22 05:44:40;;;;;;;8.13;6.70;;;12.80;92.60;;;;;;6209293;23;20028;-87
2021/09/22 05:47:05;;;;;;;7.50;6.68;;;12.80;92.60;;;;;;6186174;23;20005;-86
2021/09/22 05:49:31;;;;;;;8.27;6.93;;;12.70;92.60;;;;;;6189321;23;20020;-85
2021/09/22 05:51:56;;;;;;;7.63;6.47;;;12.70;92.70;;;;;;6216233;23;20019;-86
2021/09/22 05:54:22;;;;;;;8.20;7.38;;;12.70;92.70;;;;;;6190953;23;20013;-86
2021/09/22 05:56:48;;;;;;;7.65;6.85;;;12.80;92.60;;;;;;6189681;23;20016;-86
2021/09/22 05:59:14;;;;;;;8.70;7.10;;;12.80;92.60;;;;;;6191335;23;20024;-86
2021/09/22 06:01:40;;;;;;;7.50;6.57;;;12.80;92.60;;;;;;6190287;23;20017;-87
2021/09/22 06:04:07;;;;;;;8.32;7.47;;;12.80;92.60;;;;;;6214663;23;20021;-86
2021/09/22 06:06:32;;;;;;;7.97;7.13;;;12.80;92.60;;;;;;6189997;23;20043;-86
2021/09/22 06:08:58;;;;;;;8.13;7.00;;;12.80;92.60;;;;;;6190889;23;20021;-85
2021/09/22 06:11:24;;;;;;;8.35;7.30;;;12.80;92.50;;;;;;6189254;23;20333;-86
2021/09/22 06:14:01;;;;;;;8.43;7.25;;;12.80;92.40;;;;;;6189571;23;20016;-88
2021/09/22 06:16:27;;;;;;;9.05;7.70;;;12.80;92.30;;;;;;6190126;23;20039;-88
2021/09/22 06:18:53;;;;;;;8.82;7.93;;;12.80;92.40;;;;;;6190608;23;20492;-88
2021/09/22 06:21:34;;;;;;;8.60;7.63;;;12.80;92.50;;;;;;6189170;23;20025;-87
2021/09/22 06:24:00;;;;;;;9.50;8.45;;;12.80;92.50;;;;;;6190732;23;20021;-82
2021/09/22 06:26:26;;;;;;;9.80;8.77;;;12.80;92.40;;;;;;6215000;23;20123;-84
2021/09/22 06:44:08;;;;;;;12.93;9.95;;;12.90;93.00;;;;;;6041188;23;20101;-84
2021/09/22 06:46:33;;;;;;;50.05;17.90;;;12.90;92.90;;;;;;6041812;23;20398;-86
2021/09/22 06:48:59;;;;;;;14.98;12.73;;;12.90;93.10;;;;;;6060992;23;20025;-85
2021/09/22 06:51:24;;;;;;;11.95;9.82;;;12.90;93.00;;;;;;6154438;23;20048;-86
2021/09/22 06:53:50;;;;;;;11.20;9.98;;;12.90;92.80;;;;;;6153955;23;20446;-84
2021/09/22 06:56:16;;;;;;;15.15;11.25;;;13.00;92.70;;;;;;6154503;23;20018;-84
2021/09/22 06:58:41;;;;;;;14.70;11.82;;;12.90;92.70;;;;;;6154310;23;20025;-83
2021/09/22 07:01:08;;;;;;;26.42;15.15;;;13.00;92.90;;;;;;6153673;23;20017;-83
2021/09/22 07:03:34;;;;;;;38.83;18.83;;;13.00;93.00;;;;;;6154049;23;20024;-84
2021/09/22 07:05:59;;;;;;;41.72;21.95;;;13.00;93.30;;;;;;6154497;23;20017;-84
2021/09/22 07:08:25;;;;;;;68.50;20.50;;;13.10;93.70;;;;;;6152964;23;20347;-85
2021/09/22 07:10:51;;;;;;;40.42;17.63;;;13.10;93.90;;;;;;6154350;23;20017;-85
2021/09/22 07:13:17;;;;;;;37.47;18.85;;;13.20;94.00;;;;;;6154318;23;20096;-84
2021/09/22 07:15:42;;;;;;;90.63;24.95;;;13.20;94.00;;;;;;6153266;23;20056;-84
2021/09/22 07:18:15;;;;;;;27.27;20.33;;;13.20;94.40;;;;;;6156051;23;20024;-85
2021/09/22 07:20:41;;;;;;;47.30;24.45;;;13.30;94.30;;;;;;6151032;23;20017;-85
2021/09/22 07:23:06;;;;;;;48.03;22.77;;;13.30;94.50;;;;;;6153449;23;20092;-85
2021/09/22 07:25:32;;;;;;;25.00;18.67;;;13.30;94.60;;;;;;6154260;23;20014;-85
2021/09/22 07:27:57;;;;;;;75.22;26.17;;;13.40;94.60;;;;;;6154683;23;20516;-85
2021/09/22 07:30:23;;;;;;;90.78;29.33;;;13.30;94.80;;;;;;6154088;23;20092;-85
2021/09/22 07:32:49;;;;;;;18.95;15.73;;;13.40;95.10;;;;;;6154712;23;20053;-85
2021/09/22 07:35:18;;;;;;;54.88;21.00;;;13.40;94.70;;;;;;6153867;23;20447;-86
2021/09/22 07:37:44;;;;;;;56.72;25.13;;;13.40;94.50;;;;;;6153694;23;20029;-83
2021/09/22 07:40:10;;;;;;;78.45;27.25;;;13.50;94.80;;;;;;6155328;23;20021;-83
2021/09/22 07:42:36;;;;;;;84.55;29.63;;;13.50;95.00;;;;;;6153502;23;20081;-83
2021/09/22 07:45:03;;;;;;;66.25;27.95;;;13.50;95.20;;;;;;6154522;23;20489;-83
2021/09/22 07:47:29;;;;;;;49.47;27.15;;;13.50;95.30;;;;;;6154103;23;20025;-83
2021/09/22 07:49:55;;;;;;;30.08;21.80;;;13.60;95.50;;;;;;6129433;23;20017;-84
2021/09/22 07:52:20;;;;;;;61.28;29.23;;;13.60;95.20;;;;;;6154747;23;20024;-86
2021/09/22 07:54:46;;;;;;;109.50;33.15;;;13.60;95.10;;;;;;6153947;23;20021;-83
2021/09/22 07:57:12;;;;;;;59.92;33.05;;;13.60;95.50;;;;;;6152548;23;20018;-86
2021/09/22 07:59:38;;;;;;;39.55;26.85;;;13.70;95.70;;;;;;6153225;23;20472;-86
2021/09/22 08:02:04;;;;;;;49.33;32.80;;;13.70;96.00;;;;;;6153994;23;20472;-87
2021/09/22 08:04:31;;;;;;;52.60;31.13;;;13.80;95.80;;;;;;6152508;23;20032;-88
2021/09/22 08:06:58;;;;;;;56.10;33.30;;;13.80;95.80;;;;;;6153887;23;20014;-85
2021/09/22 08:09:25;;;;;;;37.25;27.55;;;13.80;95.80;;;;;;6153600;23;20342;-85
2021/09/22 08:11:52;;;;;;;80.57;38.67;;;13.90;95.80;;;;;;6153506;23;20013;-85
2021/09/22 08:14:17;;;;;;;42.13;30.52;;;13.90;96.00;;;;;;6154030;23;20025;-85
2021/09/22 08:16:45;;;;;;;56.55;34.40;;;13.90;95.80;;;;;;6153890;23;20354;-87
2021/09/22 08:19:13;;;;;;;51.78;34.10;;;14.00;95.90;;;;;;6153429;23;20021;-86
2021/09/22 08:21:39;;;;;;;49.35;34.75;;;14.00;95.90;;;;;;6153593;23;20018;-87
2021/09/22 08:24:05;;;;;;;45.42;32.00;;;14.10;95.80;;;;;;6154090;23;20045;-86
2021/09/22 08:26:30;;;;;;;56.75;37.70;;;14.10;95.80;;;;;;6151780;23;20065;-86
2021/09/22 08:28:56;;;;;;;77.82;45.60;;;14.20;96.20;;;;;;6154293;23;20510;-86
2021/09/22 08:31:22;;;;;;;69.30;43.45;;;14.20;96.20;;;;;;6153137;23;20032;-86
2021/09/22 08:33:48;;;;;;;63.70;40.28;;;14.30;96.50;;;;;;6153187;23;20018;-87
2021/09/22 08:36:13;;;;;;;74.20;45.33;;;14.30;96.50;;;;;;6155771;23;20509;-87
2021/09/22 08:38:39;;;;;;;59.53;39.17;;;14.40;96.60;;;;;;6129721;23;20025;-87
2021/09/22 08:41:05;;;;;;;60.45;38.72;;;14.40;96.40;;;;;;6155970;23;20342;-86
2021/09/22 08:43:31;;;;;;;77.82;44.53;;;14.40;96.40;;;;;;6155881;23;20021;-87
2021/09/22 08:45:57;;;;;;;80.57;46.78;;;14.50;96.60;;;;;;6155817;23;20346;-87
2021/09/22 08:48:27;;;;;;;112.60;56.83;;;14.50;96.80;;;;;;6156899;23;20013;-86
2021/09/22 08:50:55;;;;;;;86.10;49.88;;;14.60;97.20;;;;;;6156182;23;20400;-85
2021/09/22 08:53:21;;;;;;;98.63;54.25;;;14.70;97.30;;;;;;6155267;23;20152;-86
2021/09/22 08:55:47;;;;;;;76.88;48.50;;;14.80;97.40;;;;;;6156178;23;20455;-86
2021/09/22 08:58:12;;;;;;;78.97;49.20;;;14.80;97.20;;;;;;6156262;23;20014;-87
2021/09/22 09:00:40;;;;;;;89.40;53.42;;;14.90;97.10;;;;;;6154491;23;20462;-86
2021/09/22 09:03:06;;;;;;;81.30;50.78;;;15.00;97.30;;;;;;6156153;23;20021;-86
2021/09/22 09:05:31;;;;;;;81.78;51.40;;;15.10;97.30;;;;;;6156312;23;20014;-86
2021/09/22 09:07:59;;;;;;;93.28;54.83;;;15.20;97.30;;;;;;6158124;23;20025;-86
2021/09/22 09:10:31;;;;;;;82.32;52.58;;;15.30;97.60;;;;;;6156422;23;20017;-86
2021/09/22 09:13:12;;;;;;;98.55;58.25;;;15.30;97.40;;;;;;6157009;23;20049;-85
2021/09/22 09:15:44;;;;;;;73.20;49.05;;;15.50;97.90;;;;;;6155202;23;20033;-85
2021/09/22 09:18:21;;;;;;;82.80;52.05;;;15.60;97.80;;;;;;6156311;23;20450;-86
2021/09/22 09:20:53;;;;;;;74.65;48.63;;;15.70;97.70;;;;;;6154714;23;20439;-84
2021/09/22 09:23:24;;;;;;;67.88;47.13;;;15.80;97.60;;;;;;6156035;23;20026;-85
2021/09/22 09:26:00;;;;;;;56.78;41.97;;;15.90;97.40;;;;;;6155821;23;20018;-85
2021/09/22 09:28:32;;;;;;;58.03;41.97;;;16.00;97.00;;;;;;6157054;23;20040;-85
2021/09/22 09:31:05;;;;;;;58.30;41.10;;;16.20;97.00;;;;;;6187660;23;20016;-85
2021/09/22 09:33:58;;;;;;;55.63;39.67;;;16.30;96.90;;;;;;6160610;23;20025;-84
2021/09/22 09:36:42;;;;;;;52.53;36.72;;;16.40;96.80;;;;;;6153058;23;20021;-84
2021/09/22 09:39:20;;;;;;;58.67;39.95;;;16.50;96.40;;;;;;6159369;23;20028;-84
2021/09/22 09:41:49;;;;;;;46.28;35.65;;;16.60;96.60;;;;;;6158719;23;20028;-85
2021/09/22 09:44:18;;;;;;;45.42;35.38;;;16.70;96.40;;;;;;6160991;23;20450;-86
2021/09/22 09:46:55;;;;;;;41.53;32.47;;;16.80;96.20;;;;;;6160446;23;20048;-85
2021/09/22 09:49:24;;;;;;;38.78;28.45;;;16.90;96.10;;;;;;6159935;23;20075;-86
2021/09/22 09:51:58;;;;;;;38.97;28.15;;;17.10;95.90;;;;;;6160690;23;20013;-87
2021/09/22 09:54:37;;;;;;;38.78;27.25;;;17.10;95.50;;;;;;6160605;23;20438;-86
2021/09/22 09:57:29;;;;;;;37.28;26.80;;;17.20;95.20;;;;;;6160301;23;20024;-85
2021/09/22 09:59:55;;;;;;;37.28;26.20;;;17.30;95.20;;;;;;6153727;23;20021;-86
2021/09/22 10:02:30;;;;;;;34.45;25.02;;;17.40;95.10;;;;;;6160284;23;20024;-86
2021/09/22 10:04:57;;;;;;;29.38;22.70;;;17.40;94.90;;;;;;6159458;23;20104;-86
2021/09/22 10:07:23;;;;;;;28.60;21.60;;;17.60;94.80;;;;;;6159936;23;20017;-86
2021/09/22 10:09:50;;;;;;;27.65;21.10;;;17.70;94.50;;;;;;6159613;23;20024;-86
2021/09/22 10:12:18;;;;;;;33.45;20.65;;;17.80;94.30;;;;;;6160270;23;20014;-84
2021/09/22 10:14:46;;;;;;;28.25;19.90;;;17.80;94.00;;;;;;6160063;23;20020;-86
2021/09/22 10:17:14;;;;;;;30.67;19.90;;;17.90;93.70;;;;;;6159576;23;20024;-86
2021/09/22 10:19:42;;;;;;;24.95;18.05;;;18.10;93.60;;;;;;6156710;23;20096;-85
2021/09/22 10:22:10;;;;;;;26.40;17.23;;;18.10;93.30;;;;;;6160255;23;20024;-84
2021/09/22 10:24:36;;;;;;;28.27;16.90;;;18.20;92.90;;;;;;6158420;23;20012;-85
2021/09/22 10:27:05;;;;;;;25.83;16.85;;;18.20;92.40;;;;;;6159591;23;20013;-85
2021/09/22 10:29:38;;;;;;;26.95;17.70;;;18.30;92.20;;;;;;6158448;23;20021;-85
2021/09/22 10:32:05;;;;;;;27.35;18.98;;;18.30;92.30;;;;;;6159010;23;20013;-86
2021/09/22 10:34:32;;;;;;;28.67;17.65;;;18.30;92.40;;;;;;6159848;23;20020;-85
2021/09/22 10:36:58;;;;;;;24.85;18.67;;;18.40;92.50;;;;;;6159927;23;20480;-86
2021/09/22 10:39:41;;;;;;;27.85;19.15;;;18.50;92.10;;;;;;6159325;23;20472;-86
2021/09/22 10:42:34;;;;;;;26.80;17.92;;;18.60;91.70;;;;;;6161081;23;20504;-85
2021/09/22 10:45:19;;;;;;;26.00;17.33;;;18.70;91.50;;;;;;6158947;23;20044;-85
2021/09/22 10:47:48;;;;;;;22.40;14.82;;;18.70;91.20;;;;;;6159942;23;20334;-85
2021/09/22 10:50:40;;;;;;;25.48;15.93;;;18.80;91.00;;;;;;6159933;23;20013;-85
2021/09/22 10:53:31;;;;;;;23.50;16.42;;;18.90;90.70;;;;;;6159079;23;20092;-85
2021/09/22 10:56:21;;;;;;;24.45;14.70;;;19.00;90.80;;;;;;6160368;23;20472;-85
2021/09/22 10:58:47;;;;;;;24.48;15.75;;;19.10;90.90;;;;;;6160034;23;20017;-84
2021/09/22 11:01:31;;;;;;;19.88;14.48;;;19.20;90.60;;;;;;6159064;23;20017;-85
2021/09/22 11:03:59;;;;;;;19.52;12.90;;;19.30;90.00;;;;;;6159616;23;20020;-85
2021/09/22 11:06:49;;;;;;;20.73;12.98;;;19.30;90.10;;;;;;6158299;23;20024;-85
2021/09/22 11:09:17;;;;;;;18.02;11.25;;;19.30;89.70;;;;;;6159308;23;20484;-85
2021/09/22 11:14:32;;;;;;;19.98;11.63;;;19.50;88.20;;;;;;6158752;23;20021;-85
2021/09/22 11:16:58;;;;;;;19.73;10.60;;;19.60;88.10;;;;;;6159073;23;20092;-85
2021/09/22 11:19:24;;;;;;;17.02;11.05;;;19.70;88.50;;;;;;6159508;23;20024;-83
2021/09/22 11:21:50;;;;;;;16.20;10.82;;;19.70;87.80;;;;;;6158835;23;20347;-84
2021/09/22 11:24:21;;;;;;;17.30;10.75;;;19.80;86.80;;;;;;6155864;23;20024;-87
2021/09/22 11:26:58;;;;;;;15.93;11.77;;;19.80;86.50;;;;;;6158644;23;20067;-86
2021/09/22 11:29:30;;;;;;;17.77;11.65;;;19.90;86.30;;;;;;6145280;23;20025;-86
2021/09/22 11:31:56;;;;;;;18.45;11.07;;;19.90;85.60;;;;;;6154558;23;20078;-85
2021/09/22 11:34:27;;;;;;;14.68;10.63;;;20.00;85.70;;;;;;6153397;23;20316;-85
2021/09/22 11:37:26;;;;;;;18.70;11.43;;;20.00;85.30;;;;;;6154629;23;20438;-85
2021/09/22 11:44:40;;;;;;;17.50;10.77;;;20.00;85.70;;;;;;6123283;23;20033;-85
2021/09/22 13:42:12;;;;;;;12.30;6.63;;;21.70;75.40;;;;;;6095839;23;20013;-90
2021/09/22 13:45:18;;;;;;;11.07;5.88;;;21.80;76.20;;;;;;6072029;23;20022;-90
2021/09/22 13:51:33;;;;;;;11.43;5.40;;;21.80;76.40;;;;;;5958920;24;20024;-87
2021/09/22 13:54:51;;;;;;;;;;;;;;;;;;;;;
2021/09/22 14:08:38;;;;;;;11.77;5.35;;;21.80;75.40;;;;;;6043075;23;20472;-88
2021/09/22 14:11:55;;;;;;;12.90;6.07;;;21.80;75.30;;;;;;6011391;23;20066;-89
2021/09/22 14:23:50;;;;;;;13.35;5.32;;;21.80;74.80;;;;;;6009838;23;20095;-88
2021/09/22 14:27:21;;;;;;;13.65;4.63;;;21.80;74.80;;;;;;5986977;23;20373;-90
2021/09/22 14:31:32;;;;;;;10.98;4.90;;;21.80;75.50;;;;;;5930740;24;20021;-88
2021/09/22 14:38:10;;;;;;;10.98;4.85;;;21.80;76.20;;;;;;5791207;24;20558;-88
2021/09/22 14:51:43;;;;;;;9.68;4.95;;;21.90;77.20;;;;;;5817777;24;20026;-89
2021/09/22 14:54:08;;;;;;;8.93;4.63;;;21.90;77.00;;;;;;5927922;23;20061;-89
2021/09/22 14:56:51;;;;;;;8.82;4.30;;;21.90;77.80;;;;;;6043798;23;20014;-89
2021/09/22 14:59:27;;;;;;;10.25;4.30;;;21.90;77.50;;;;;;6062872;23;20056;-87
2021/09/22 15:02:11;;;;;;;10.20;4.30;;;21.80;76.00;;;;;;6071848;23;20019;-87
2021/09/22 15:05:25;;;;;;;11.10;4.30;;;21.80;75.00;;;;;;6071182;23;20022;-86
2021/09/22 15:08:18;;;;;;;8.90;4.30;;;21.80;75.30;;;;;;6071343;23;20019;-86
2021/09/22 15:10:48;;;;;;;10.63;4.30;;;21.80;76.00;;;;;;6071488;23;20026;-85
2021/09/22 15:13:33;;;;;;;10.20;3.92;;;21.80;77.40;;;;;;6091936;23;20099;-88
2021/09/22 15:15:59;;;;;;;8.85;4.55;;;21.80;75.70;;;;;;6160326;23;20398;-85
2021/09/22 15:18:31;;;;;;;11.38;4.78;;;21.90;76.00;;;;;;6159845;23;20044;-86
2021/09/22 15:21:12;;;;;;;12.85;4.72;;;21.80;75.50;;;;;;6147433;23;20014;-86
2021/09/22 15:23:38;;;;;;;8.98;4.50;;;21.90;77.70;;;;;;6129987;23;20022;-86
2021/09/22 15:26:50;;;;;;;9.52;4.50;;;21.80;77.60;;;;;;6130704;23;20013;-87
2021/09/22 15:29:49;;;;;;;10.65;4.70;;;21.90;75.10;;;;;;6131669;23;20063;-86
2021/09/22 15:36:01;;;;;;;8.68;4.57;;;21.70;75.80;;;;;;6156362;23;20020;-87
2021/09/22 15:50:29;;;;;;;11.02;4.70;;;21.60;77.10;;;;;;6006776;23;20415;-88
2021/09/22 15:58:45;;;;;;;11.45;4.38;;;21.70;80.10;;;;;;6167872;23;20080;-91
2021/09/22 16:30:29;;;;;;;11.85;4.68;;;21.40;78.50;;;;;;6154648;23;20097;-87
2021/09/22 16:41:47;;;;;;;6.38;3.90;;;21.40;81.60;;;;;;6008677;23;20051;-85
2021/09/22 16:48:10;;;;;;;9.65;3.75;;;21.50;82.50;;;;;;6010176;23;20377;-85
2021/09/22 16:54:37;;;;;;;8.65;3.95;;;21.50;84.60;;;;;;6003059;23;20034;-84
2021/09/22 16:57:40;;;;;;;6.90;4.05;;;21.60;85.30;;;;;;5977613;24;20023;-85
2021/09/22 17:04:11;;;;;;;7.32;4.30;;;21.60;85.40;;;;;;6067622;23;20038;-83
2021/09/22 17:06:37;;;;;;;8.00;4.40;;;21.70;85.70;;;;;;6042756;23;20091;-84
2021/09/22 17:09:04;;;;;;;7.45;4.07;;;21.70;86.30;;;;;;6044116;23;20026;-83
2021/09/22 17:11:30;;;;;;;8.73;4.30;;;21.70;86.50;;;;;;6103662;23;20477;-83
2021/09/22 17:13:56;;;;;;;7.97;4.45;;;21.70;86.70;;;;;;6155357;23;20022;-83
2021/09/22 17:16:23;;;;;;;6.55;3.90;;;21.70;86.80;;;;;;6158336;23;20071;-81
2021/09/22 17:18:52;;;;;;;7.65;4.00;;;21.70;86.70;;;;;;6155011;23;20473;-81
2021/09/22 17:21:18;;;;;;;7.68;4.13;;;21.80;86.80;;;;;;6155854;23;20104;-81